Hlavní strana
METAR-TAF:

METAR-TAF

Letiště :

Kittilä, Finsko

zeměpisná šířka: 67-42N, zeměpisná délka: 024-51E, výška: 196 m

Aktuální stav počasí

Zpráva byla vytvořena před 41 minutami, v 09:50 UTC
Jihojihovýchodní vítr 6 kt
Teplota -5°C
Vlhkost vzduchu 93%
Tlak 993 hPa
Viditelnost: 4200 m
Zataženo ve výšce 200 ft
slabé sněhové přeháňky, kouřmo

METAR: EFKT 250950Z 16006KT 4200 -SHSN BR OVC002 M05/M06 Q0993

Čas: 12:31 (10:31 UTC)

Předpověď počasí

Zpráva byla vytvořena před 10 minutami, v 10:21 UTC
Předpověď platná od 25 v 10 UTC do 25 v 18 UTC
Jihojihovýchodní vítr 7 kt
Viditelnost: 8000 m
Oblačno až skoro zataženo ve výšce 300 ft
Dočasný
od 25 v 10 UTC do 25 v 18 UTC
Viditelnost: 2000 m
Oblačno až skoro zataženo ve výšce 100 ft
(slabý) mrznoucí, mrholení

TAF: EFKT 251021Z 2510/2518 16007KT 8000 BKN003 TEMPO 2510/2518 2000 -FZDZ BKN001

Stav a předpovědi počasí z více než 4 000 letišť (zprávy METAR a TAF).

Červené a žluté tečky na mapě představují dostupné meteorologické stanice.

Když kurzor umístíte na tečku, zobrazí se název stanice.

Pak kliknutím zobrazíte stav a předpověď počasí.

Chcete-li změnit mapu, kliknutím na zelené tlačítko se znaménkem +mapu přiblížíte, kliknutím na zelené tlačítko se znaménkem – mapu oddálíte a kliknutím na zelené šipky přejdete na sousední mapy.


METAR-TAF: